sensor_id;sensor_type;location;lat;lon;timestamp;P1;durP1;ratioP1;P2;durP2;ratioP2
26774;SDS011;14362;51.902;7.626;2023-03-11T00:00:28;5.97;;;3.60;;
26774;SDS011;14362;51.902;7.626;2023-03-11T00:04:34;9.20;;;3.95;;
26774;SDS011;14362;51.902;7.626;2023-03-11T00:08:36;4.65;;;2.83;;
26774;SDS011;14362;51.902;7.626;2023-03-11T00:12:38;5.05;;;3.83;;
26774;SDS011;14362;51.902;7.626;2023-03-11T00:16:39;5.43;;;3.58;;
26774;SDS011;14362;51.902;7.626;2023-03-11T00:20:41;5.60;;;3.53;;
26774;SDS011;14362;51.902;7.626;2023-03-11T00:24:45;4.90;;;3.80;;
26774;SDS011;14362;51.902;7.626;2023-03-11T00:28:46;7.00;;;3.17;;
26774;SDS011;14362;51.902;7.626;2023-03-11T00:32:48;5.70;;;3.55;;
26774;SDS011;14362;51.902;7.626;2023-03-11T00:36:50;4.75;;;3.42;;
26774;SDS011;14362;51.902;7.626;2023-03-11T00:40:53;8.10;;;3.60;;
26774;SDS011;14362;51.902;7.626;2023-03-11T00:44:54;4.85;;;3.38;;
26774;SDS011;14362;51.902;7.626;2023-03-11T00:48:56;6.28;;;3.53;;
26774;SDS011;14362;51.902;7.626;2023-03-11T00:52:57;8.43;;;3.70;;
26774;SDS011;14362;51.902;7.626;2023-03-11T00:57:00;5.65;;;3.20;;
26774;SDS011;14362;51.902;7.626;2023-03-11T01:01:05;7.22;;;3.65;;
26774;SDS011;14362;51.902;7.626;2023-03-11T01:05:08;6.15;;;3.40;;
26774;SDS011;14362;51.902;7.626;2023-03-11T01:09:10;4.40;;;3.00;;
26774;SDS011;14362;51.902;7.626;2023-03-11T01:13:13;5.55;;;3.15;;
26774;SDS011;14362;51.902;7.626;2023-03-11T01:17:14;5.65;;;3.00;;
26774;SDS011;14362;51.902;7.626;2023-03-11T01:21:16;8.35;;;3.38;;
26774;SDS011;14362;51.902;7.626;2023-03-11T01:25:18;5.38;;;2.95;;
26774;SDS011;14362;51.902;7.626;2023-03-11T01:29:23;5.15;;;3.78;;
26774;SDS011;14362;51.902;7.626;2023-03-11T01:33:25;5.32;;;3.50;;
26774;SDS011;14362;51.902;7.626;2023-03-11T01:37:28;5.90;;;3.03;;
26774;SDS011;14362;51.902;7.626;2023-03-11T01:41:29;7.25;;;3.88;;
26774;SDS011;14362;51.902;7.626;2023-03-11T01:45:40;6.50;;;3.65;;
26774;SDS011;14362;51.902;7.626;2023-03-11T01:50:03;6.25;;;2.97;;
26774;SDS011;14362;51.902;7.626;2023-03-11T01:54:07;7.13;;;3.38;;
26774;SDS011;14362;51.902;7.626;2023-03-11T01:58:13;3.25;;;2.50;;
26774;SDS011;14362;51.902;7.626;2023-03-11T02:02:20;6.40;;;3.25;;
26774;SDS011;14362;51.902;7.626;2023-03-11T02:06:24;12.85;;;3.25;;
26774;SDS011;14362;51.902;7.626;2023-03-11T02:10:26;10.52;;;3.00;;
26774;SDS011;14362;51.902;7.626;2023-03-11T02:14:27;7.00;;;2.92;;
26774;SDS011;14362;51.902;7.626;2023-03-11T02:18:32;7.65;;;2.80;;
26774;SDS011;14362;51.902;7.626;2023-03-11T02:22:34;8.30;;;3.03;;
26774;SDS011;14362;51.902;7.626;2023-03-11T02:26:36;7.68;;;2.92;;
26774;SDS011;14362;51.902;7.626;2023-03-11T02:30:44;6.97;;;3.00;;
26774;SDS011;14362;51.902;7.626;2023-03-11T02:34:46;12.10;;;3.00;;
26774;SDS011;14362;51.902;7.626;2023-03-11T02:38:48;8.30;;;3.38;;
26774;SDS011;14362;51.902;7.626;2023-03-11T02:42:49;3.75;;;2.60;;
26774;SDS011;14362;51.902;7.626;2023-03-11T02:50:57;5.65;;;2.53;;
26774;SDS011;14362;51.902;7.626;2023-03-11T02:54:59;11.07;;;3.13;;
26774;SDS011;14362;51.902;7.626;2023-03-11T02:59:01;6.32;;;2.72;;
26774;SDS011;14362;51.902;7.626;2023-03-11T03:03:04;3.92;;;2.53;;
26774;SDS011;14362;51.902;7.626;2023-03-11T03:07:05;7.15;;;3.08;;
26774;SDS011;14362;51.902;7.626;2023-03-11T03:11:07;7.65;;;2.65;;
26774;SDS011;14362;51.902;7.626;2023-03-11T03:15:09;3.08;;;2.63;;
26774;SDS011;14362;51.902;7.626;2023-03-11T03:19:12;7.07;;;3.00;;
26774;SDS011;14362;51.902;7.626;2023-03-11T03:23:14;7.20;;;2.78;;
26774;SDS011;14362;51.902;7.626;2023-03-11T03:27:15;8.65;;;3.50;;
26774;SDS011;14362;51.902;7.626;2023-03-11T03:31:17;5.68;;;2.83;;
26774;SDS011;14362;51.902;7.626;2023-03-11T03:35:20;8.57;;;3.50;;
26774;SDS011;14362;51.902;7.626;2023-03-11T03:39:21;6.78;;;3.40;;
26774;SDS011;14362;51.902;7.626;2023-03-11T03:43:23;9.45;;;3.42;;
26774;SDS011;14362;51.902;7.626;2023-03-11T03:47:24;7.28;;;2.50;;
26774;SDS011;14362;51.902;7.626;2023-03-11T03:51:27;3.78;;;2.80;;
26774;SDS011;14362;51.902;7.626;2023-03-11T03:55:28;4.70;;;2.53;;
26774;SDS011;14362;51.902;7.626;2023-03-11T03:59:30;6.28;;;2.90;;
26774;SDS011;14362;51.902;7.626;2023-03-11T04:03:31;5.75;;;2.80;;
26774;SDS011;14362;51.902;7.626;2023-03-11T04:07:35;5.43;;;2.90;;
26774;SDS011;14362;51.902;7.626;2023-03-11T04:11:37;9.65;;;2.50;;
26774;SDS011;14362;51.902;7.626;2023-03-11T04:15:38;7.93;;;2.72;;
26774;SDS011;14362;51.902;7.626;2023-03-11T04:19:40;3.78;;;1.77;;
26774;SDS011;14362;51.902;7.626;2023-03-11T04:23:42;8.05;;;2.60;;
26774;SDS011;14362;51.902;7.626;2023-03-11T04:27:44;4.25;;;2.03;;
26774;SDS011;14362;51.902;7.626;2023-03-11T04:31:49;8.63;;;2.53;;
26774;SDS011;14362;51.902;7.626;2023-03-11T04:35:50;10.13;;;2.72;;
26774;SDS011;14362;51.902;7.626;2023-03-11T04:39:53;3.58;;;2.35;;
26774;SDS011;14362;51.902;7.626;2023-03-11T04:43:54;6.95;;;2.25;;
26774;SDS011;14362;51.902;7.626;2023-03-11T04:47:56;7.70;;;2.35;;
26774;SDS011;14362;51.902;7.626;2023-03-11T04:51:57;4.53;;;2.13;;
26774;SDS011;14362;51.902;7.626;2023-03-11T04:56:00;5.70;;;2.35;;
26774;SDS011;14362;51.902;7.626;2023-03-11T05:00:02;5.15;;;2.25;;
26774;SDS011;14362;51.902;7.626;2023-03-11T05:04:08;11.02;;;2.95;;
26774;SDS011;14362;51.902;7.626;2023-03-11T05:08:11;5.15;;;2.85;;
26774;SDS011;14362;51.902;7.626;2023-03-11T05:12:13;8.35;;;2.60;;
26774;SDS011;14362;51.902;7.626;2023-03-11T05:16:15;7.65;;;2.30;;
26774;SDS011;14362;51.902;7.626;2023-03-11T05:20:17;7.50;;;3.45;;
26774;SDS011;14362;51.902;7.626;2023-03-11T05:24:18;5.90;;;2.10;;
26774;SDS011;14362;51.902;7.626;2023-03-11T05:28:21;6.13;;;2.13;;
26774;SDS011;14362;51.902;7.626;2023-03-11T05:32:23;4.50;;;2.10;;
26774;SDS011;14362;51.902;7.626;2023-03-11T05:36:24;6.47;;;2.42;;
26774;SDS011;14362;51.902;7.626;2023-03-11T05:40:26;5.57;;;2.03;;
26774;SDS011;14362;51.902;7.626;2023-03-11T05:44:29;7.70;;;2.33;;
26774;SDS011;14362;51.902;7.626;2023-03-11T05:48:30;4.32;;;2.05;;
26774;SDS011;14362;51.902;7.626;2023-03-11T05:52:32;6.25;;;2.28;;
26774;SDS011;14362;51.902;7.626;2023-03-11T05:56:33;5.63;;;2.53;;
26774;SDS011;14362;51.902;7.626;2023-03-11T06:00:36;7.32;;;1.90;;
26774;SDS011;14362;51.902;7.626;2023-03-11T06:04:37;6.55;;;2.05;;
26774;SDS011;14362;51.902;7.626;2023-03-11T06:08:39;5.88;;;2.22;;
26774;SDS011;14362;51.902;7.626;2023-03-11T06:12:44;8.40;;;2.63;;
26774;SDS011;14362;51.902;7.626;2023-03-11T06:16:47;4.45;;;2.10;;
26774;SDS011;14362;51.902;7.626;2023-03-11T06:20:49;7.68;;;2.22;;
26774;SDS011;14362;51.902;7.626;2023-03-11T06:24:50;9.95;;;2.85;;
26774;SDS011;14362;51.902;7.626;2023-03-11T06:28:52;5.43;;;2.20;;
26774;SDS011;14362;51.902;7.626;2023-03-11T06:32:54;9.82;;;2.40;;
26774;SDS011;14362;51.902;7.626;2023-03-11T06:36:56;5.10;;;2.45;;
26774;SDS011;14362;51.902;7.626;2023-03-11T06:40:58;8.20;;;3.08;;
26774;SDS011;14362;51.902;7.626;2023-03-11T06:45:00;8.55;;;2.60;;
26774;SDS011;14362;51.902;7.626;2023-03-11T06:49:03;3.75;;;2.30;;
26774;SDS011;14362;51.902;7.626;2023-03-11T06:53:05;6.57;;;2.55;;
26774;SDS011;14362;51.902;7.626;2023-03-11T06:57:06;5.75;;;2.42;;
26774;SDS011;14362;51.902;7.626;2023-03-11T07:01:09;7.03;;;2.80;;
26774;SDS011;14362;51.902;7.626;2023-03-11T07:05:14;11.40;;;2.20;;
26774;SDS011;14362;51.902;7.626;2023-03-11T07:09:15;4.18;;;2.33;;
26774;SDS011;14362;51.902;7.626;2023-03-11T07:13:17;6.80;;;2.60;;
26774;SDS011;14362;51.902;7.626;2023-03-11T07:17:18;5.93;;;2.40;;
26774;SDS011;14362;51.902;7.626;2023-03-11T07:21:21;3.80;;;2.22;;
26774;SDS011;14362;51.902;7.626;2023-03-11T07:25:23;6.35;;;3.13;;
26774;SDS011;14362;51.902;7.626;2023-03-11T07:29:25;4.18;;;2.13;;
26774;SDS011;14362;51.902;7.626;2023-03-11T07:33:26;6.57;;;2.90;;
26774;SDS011;14362;51.902;7.626;2023-03-11T07:37:29;7.68;;;2.75;;
26774;SDS011;14362;51.902;7.626;2023-03-11T07:41:31;6.90;;;2.75;;
26774;SDS011;14362;51.902;7.626;2023-03-11T07:45:33;11.98;;;3.20;;
26774;SDS011;14362;51.902;7.626;2023-03-11T07:49:34;7.85;;;2.80;;
26774;SDS011;14362;51.902;7.626;2023-03-11T07:53:37;6.57;;;2.70;;
26774;SDS011;14362;51.902;7.626;2023-03-11T07:57:39;5.70;;;2.45;;
26774;SDS011;14362;51.902;7.626;2023-03-11T08:01:41;6.65;;;2.42;;
26774;SDS011;14362;51.902;7.626;2023-03-11T08:05:46;6.32;;;1.95;;
26774;SDS011;14362;51.902;7.626;2023-03-11T08:09:48;6.38;;;2.38;;
26774;SDS011;14362;51.902;7.626;2023-03-11T08:13:50;5.97;;;2.03;;
26774;SDS011;14362;51.902;7.626;2023-03-11T08:17:52;13.63;;;2.33;;
26774;SDS011;14362;51.902;7.626;2023-03-11T08:21:54;9.02;;;1.85;;
26774;SDS011;14362;51.902;7.626;2023-03-11T08:25:56;5.28;;;2.47;;
26774;SDS011;14362;51.902;7.626;2023-03-11T08:29:58;3.60;;;1.77;;
26774;SDS011;14362;51.902;7.626;2023-03-11T08:34:00;9.95;;;2.10;;
26774;SDS011;14362;51.902;7.626;2023-03-11T08:38:03;6.88;;;2.30;;
26774;SDS011;14362;51.902;7.626;2023-03-11T08:42:06;9.70;;;1.98;;
26774;SDS011;14362;51.902;7.626;2023-03-11T08:46:09;11.43;;;2.13;;
26774;SDS011;14362;51.902;7.626;2023-03-11T08:50:16;7.72;;;1.58;;
26774;SDS011;14362;51.902;7.626;2023-03-11T08:54:18;6.85;;;2.30;;
26774;SDS011;14362;51.902;7.626;2023-03-11T08:58:21;3.20;;;1.70;;
26774;SDS011;14362;51.902;7.626;2023-03-11T09:02:23;9.90;;;2.00;;
26774;SDS011;14362;51.902;7.626;2023-03-11T09:06:24;3.20;;;1.42;;
26774;SDS011;14362;51.902;7.626;2023-03-11T09:10:26;2.22;;;1.40;;
26774;SDS011;14362;51.902;7.626;2023-03-11T09:14:28;7.25;;;2.05;;
26774;SDS011;14362;51.902;7.626;2023-03-11T09:18:30;3.15;;;1.42;;
26774;SDS011;14362;51.902;7.626;2023-03-11T09:22:31;6.32;;;1.60;;
26774;SDS011;14362;51.902;7.626;2023-03-11T09:26:33;3.78;;;1.52;;
26774;SDS011;14362;51.902;7.626;2023-03-11T09:30:36;6.05;;;1.40;;
26774;SDS011;14362;51.902;7.626;2023-03-11T09:34:38;6.85;;;1.73;;
26774;SDS011;14362;51.902;7.626;2023-03-11T09:38:40;11.43;;;2.00;;
26774;SDS011;14362;51.902;7.626;2023-03-11T09:42:42;4.63;;;1.05;;
26774;SDS011;14362;51.902;7.626;2023-03-11T09:47:02;3.70;;;0.98;;
26774;SDS011;14362;51.902;7.626;2023-03-11T09:51:19;2.30;;;0.80;;
26774;SDS011;14362;51.902;7.626;2023-03-11T09:55:32;5.57;;;1.33;;
26774;SDS011;14362;51.902;7.626;2023-03-11T09:59:38;2.67;;;0.88;;
26774;SDS011;14362;51.902;7.626;2023-03-11T10:03:44;2.00;;;0.98;;
26774;SDS011;14362;51.902;7.626;2023-03-11T10:07:48;4.38;;;1.02;;
26774;SDS011;14362;51.902;7.626;2023-03-11T10:12:00;4.97;;;1.25;;
26774;SDS011;14362;51.902;7.626;2023-03-11T10:16:11;2.08;;;0.93;;
26774;SDS011;14362;51.902;7.626;2023-03-11T10:20:20;1.50;;;0.93;;
26774;SDS011;14362;51.902;7.626;2023-03-11T10:24:34;1.83;;;0.75;;
26774;SDS011;14362;51.902;7.626;2023-03-11T10:28:46;1.65;;;0.77;;
26774;SDS011;14362;51.902;7.626;2023-03-11T10:32:53;2.55;;;0.80;;
26774;SDS011;14362;51.902;7.626;2023-03-11T10:36:59;3.00;;;1.00;;
26774;SDS011;14362;51.902;7.626;2023-03-11T10:41:09;6.65;;;1.98;;
26774;SDS011;14362;51.902;7.626;2023-03-11T10:45:15;2.45;;;0.90;;
26774;SDS011;14362;51.902;7.626;2023-03-11T10:49:17;2.65;;;0.70;;
26774;SDS011;14362;51.902;7.626;2023-03-11T10:53:20;2.33;;;0.63;;
26774;SDS011;14362;51.902;7.626;2023-03-11T10:57:22;6.00;;;1.60;;
26774;SDS011;14362;51.902;7.626;2023-03-11T11:01:26;2.78;;;1.10;;
26774;SDS011;14362;51.902;7.626;2023-03-11T11:05:29;4.03;;;1.20;;
26774;SDS011;14362;51.902;7.626;2023-03-11T11:09:34;5.18;;;2.33;;
26774;SDS011;14362;51.902;7.626;2023-03-11T11:13:35;7.78;;;0.80;;
26774;SDS011;14362;51.902;7.626;2023-03-11T11:17:37;4.60;;;1.33;;
26774;SDS011;14362;51.902;7.626;2023-03-11T11:21:39;3.45;;;0.70;;
26774;SDS011;14362;51.902;7.626;2023-03-11T11:25:45;1.90;;;0.93;;
26774;SDS011;14362;51.902;7.626;2023-03-11T11:30:02;1.38;;;0.90;;
26774;SDS011;14362;51.902;7.626;2023-03-11T11:34:28;6.25;;;1.17;;
26774;SDS011;14362;51.902;7.626;2023-03-11T11:38:31;6.57;;;1.00;;
26774;SDS011;14362;51.902;7.626;2023-03-11T11:42:35;2.65;;;1.10;;
26774;SDS011;14362;51.902;7.626;2023-03-11T11:46:39;1.88;;;0.80;;
26774;SDS011;14362;51.902;7.626;2023-03-11T11:50:44;3.70;;;1.23;;
26774;SDS011;14362;51.902;7.626;2023-03-11T11:58:53;10.25;;;1.50;;
26774;SDS011;14362;51.902;7.626;2023-03-11T12:03:00;3.22;;;0.95;;
26774;SDS011;14362;51.902;7.626;2023-03-11T12:07:15;2.55;;;1.15;;
26774;SDS011;14362;51.902;7.626;2023-03-11T12:11:25;6.05;;;1.17;;
26774;SDS011;14362;51.902;7.626;2023-03-11T12:15:36;3.63;;;0.90;;
26774;SDS011;14362;51.902;7.626;2023-03-11T12:19:41;5.80;;;1.05;;
26774;SDS011;14362;51.902;7.626;2023-03-11T12:23:52;3.47;;;0.82;;
26774;SDS011;14362;51.902;7.626;2023-03-11T12:28:10;1.63;;;0.70;;
26774;SDS011;14362;51.902;7.626;2023-03-11T12:32:21;2.45;;;0.77;;
26774;SDS011;14362;51.902;7.626;2023-03-11T12:36:28;1.95;;;0.98;;
26774;SDS011;14362;51.902;7.626;2023-03-11T12:40:41;4.18;;;0.80;;
26774;SDS011;14362;51.902;7.626;2023-03-11T12:44:47;3.80;;;0.80;;
26774;SDS011;14362;51.902;7.626;2023-03-11T12:49:04;3.10;;;0.77;;
26774;SDS011;14362;51.902;7.626;2023-03-11T12:53:14;2.15;;;0.95;;
26774;SDS011;14362;51.902;7.626;2023-03-11T12:57:26;3.30;;;0.98;;
26774;SDS011;14362;51.902;7.626;2023-03-11T13:05:55;1.90;;;1.00;;
26774;SDS011;14362;51.902;7.626;2023-03-11T13:10:02;3.38;;;1.02;;
26774;SDS011;14362;51.902;7.626;2023-03-11T13:18:34;5.53;;;1.05;;
26774;SDS011;14362;51.902;7.626;2023-03-11T13:23:05;1.38;;;0.95;;
26774;SDS011;14362;51.902;7.626;2023-03-11T13:27:10;4.50;;;1.33;;
26774;SDS011;14362;51.902;7.626;2023-03-11T13:31:28;3.58;;;1.25;;
26774;SDS011;14362;51.902;7.626;2023-03-11T13:35:43;2.25;;;1.33;;
26774;SDS011;14362;51.902;7.626;2023-03-11T13:40:03;1.42;;;1.10;;
26774;SDS011;14362;51.902;7.626;2023-03-11T13:44:16;2.50;;;1.00;;
26774;SDS011;14362;51.902;7.626;2023-03-11T13:48:25;3.58;;;1.33;;
26774;SDS011;14362;51.902;7.626;2023-03-11T13:52:30;3.35;;;1.00;;
26774;SDS011;14362;51.902;7.626;2023-03-11T13:56:38;3.83;;;1.97;;
26774;SDS011;14362;51.902;7.626;2023-03-11T14:00:46;4.70;;;1.27;;
26774;SDS011;14362;51.902;7.626;2023-03-11T14:04:50;3.65;;;1.50;;
26774;SDS011;14362;51.902;7.626;2023-03-11T14:08:54;4.63;;;1.20;;
26774;SDS011;14362;51.902;7.626;2023-03-11T14:13:13;4.30;;;1.38;;
26774;SDS011;14362;51.902;7.626;2023-03-11T14:17:17;2.92;;;1.10;;
26774;SDS011;14362;51.902;7.626;2023-03-11T14:21:20;3.75;;;1.17;;
26774;SDS011;14362;51.902;7.626;2023-03-11T14:25:23;2.63;;;0.85;;
26774;SDS011;14362;51.902;7.626;2023-03-11T14:29:29;1.92;;;0.93;;
26774;SDS011;14362;51.902;7.626;2023-03-11T14:33:32;1.00;;;0.60;;
26774;SDS011;14362;51.902;7.626;2023-03-11T14:37:34;3.60;;;1.05;;
26774;SDS011;14362;51.902;7.626;2023-03-11T14:41:37;0.95;;;0.82;;
26774;SDS011;14362;51.902;7.626;2023-03-11T14:45:41;4.20;;;0.73;;
26774;SDS011;14362;51.902;7.626;2023-03-11T14:49:43;0.50;;;0.50;;
26774;SDS011;14362;51.902;7.626;2023-03-11T14:53:48;1.02;;;0.70;;
26774;SDS011;14362;51.902;7.626;2023-03-11T14:57:58;2.60;;;0.70;;
26774;SDS011;14362;51.902;7.626;2023-03-11T15:02:15;1.15;;;0.80;;
26774;SDS011;14362;51.902;7.626;2023-03-11T15:06:29;1.20;;;0.68;;
26774;SDS011;14362;51.902;7.626;2023-03-11T15:10:32;1.73;;;0.60;;
26774;SDS011;14362;51.902;7.626;2023-03-11T15:14:35;3.58;;;0.90;;
26774;SDS011;14362;51.902;7.626;2023-03-11T15:18:50;1.88;;;0.70;;
26774;SDS011;14362;51.902;7.626;2023-03-11T15:22:53;4.80;;;1.15;;
26774;SDS011;14362;51.902;7.626;2023-03-11T15:27:01;4.32;;;0.90;;
26774;SDS011;14362;51.902;7.626;2023-03-11T15:31:25;2.22;;;0.75;;
26774;SDS011;14362;51.902;7.626;2023-03-11T15:35:31;2.22;;;0.82;;
26774;SDS011;14362;51.902;7.626;2023-03-11T15:39:47;2.67;;;1.15;;
26774;SDS011;14362;51.902;7.626;2023-03-11T15:43:51;2.40;;;0.88;;
26774;SDS011;14362;51.902;7.626;2023-03-11T15:47:53;1.50;;;0.70;;
26774;SDS011;14362;51.902;7.626;2023-03-11T15:51:58;1.88;;;0.90;;
26774;SDS011;14362;51.902;7.626;2023-03-11T16:00:04;5.55;;;0.93;;
26774;SDS011;14362;51.902;7.626;2023-03-11T16:04:11;3.55;;;0.80;;
26774;SDS011;14362;51.902;7.626;2023-03-11T16:08:15;1.52;;;0.95;;
26774;SDS011;14362;51.902;7.626;2023-03-11T16:12:18;1.30;;;0.70;;
26774;SDS011;14362;51.902;7.626;2023-03-11T16:16:20;2.38;;;1.25;;
26774;SDS011;14362;51.902;7.626;2023-03-11T16:20:22;1.63;;;0.82;;
26774;SDS011;14362;51.902;7.626;2023-03-11T16:24:26;4.18;;;1.08;;
26774;SDS011;14362;51.902;7.626;2023-03-11T16:28:28;5.60;;;1.00;;
26774;SDS011;14362;51.902;7.626;2023-03-11T16:32:29;2.20;;;1.02;;
26774;SDS011;14362;51.902;7.626;2023-03-11T16:36:31;6.18;;;1.30;;
26774;SDS011;14362;51.902;7.626;2023-03-11T16:40:33;3.20;;;0.73;;
26774;SDS011;14362;51.902;7.626;2023-03-11T16:44:35;2.83;;;0.77;;
26774;SDS011;14362;51.902;7.626;2023-03-11T16:48:36;3.88;;;1.33;;
26774;SDS011;14362;51.902;7.626;2023-03-11T16:52:38;2.25;;;0.90;;
26774;SDS011;14362;51.902;7.626;2023-03-11T16:56:40;2.30;;;0.95;;
26774;SDS011;14362;51.902;7.626;2023-03-11T17:00:42;0.77;;;0.63;;
26774;SDS011;14362;51.902;7.626;2023-03-11T17:04:44;2.83;;;1.40;;
26774;SDS011;14362;51.902;7.626;2023-03-11T17:08:45;2.42;;;0.90;;
26774;SDS011;14362;51.902;7.626;2023-03-11T17:12:50;3.50;;;0.95;;
26774;SDS011;14362;51.902;7.626;2023-03-11T17:16:51;2.95;;;1.02;;
26774;SDS011;14362;51.902;7.626;2023-03-11T17:20:53;5.22;;;1.10;;
26774;SDS011;14362;51.902;7.626;2023-03-11T17:24:54;2.75;;;1.17;;
26774;SDS011;14362;51.902;7.626;2023-03-11T17:28:57;1.67;;;1.00;;
26774;SDS011;14362;51.902;7.626;2023-03-11T17:32:59;1.77;;;1.00;;
26774;SDS011;14362;51.902;7.626;2023-03-11T17:37:00;2.65;;;1.02;;
26774;SDS011;14362;51.902;7.626;2023-03-11T17:41:05;2.42;;;0.90;;
26774;SDS011;14362;51.902;7.626;2023-03-11T17:45:09;1.80;;;1.17;;
26774;SDS011;14362;51.902;7.626;2023-03-11T17:49:12;4.65;;;1.42;;
26774;SDS011;14362;51.902;7.626;2023-03-11T17:53:14;2.78;;;1.10;;
26774;SDS011;14362;51.902;7.626;2023-03-11T17:57:16;3.33;;;1.88;;
26774;SDS011;14362;51.902;7.626;2023-03-11T18:01:20;9.07;;;4.15;;
26774;SDS011;14362;51.902;7.626;2023-03-11T18:05:22;18.98;;;4.30;;
26774;SDS011;14362;51.902;7.626;2023-03-11T18:09:24;6.25;;;2.83;;
26774;SDS011;14362;51.902;7.626;2023-03-11T18:13:25;2.90;;;2.00;;
26774;SDS011;14362;51.902;7.626;2023-03-11T18:17:28;4.75;;;1.73;;
26774;SDS011;14362;51.902;7.626;2023-03-11T18:21:30;3.95;;;1.80;;
26774;SDS011;14362;51.902;7.626;2023-03-11T18:25:32;5.32;;;1.67;;
26774;SDS011;14362;51.902;7.626;2023-03-11T18:29:33;2.50;;;1.70;;
26774;SDS011;14362;51.902;7.626;2023-03-11T18:33:36;3.60;;;1.33;;
26774;SDS011;14362;51.902;7.626;2023-03-11T18:37:38;5.18;;;2.25;;
26774;SDS011;14362;51.902;7.626;2023-03-11T18:41:40;10.95;;;2.92;;
26774;SDS011;14362;51.902;7.626;2023-03-11T18:45:42;4.78;;;2.42;;
26774;SDS011;14362;51.902;7.626;2023-03-11T18:49:45;5.82;;;2.78;;
26774;SDS011;14362;51.902;7.626;2023-03-11T18:53:46;4.57;;;2.67;;
26774;SDS011;14362;51.902;7.626;2023-03-11T18:57:48;10.40;;;3.55;;
26774;SDS011;14362;51.902;7.626;2023-03-11T19:01:49;7.82;;;3.60;;
26774;SDS011;14362;51.902;7.626;2023-03-11T19:05:52;7.43;;;3.78;;
26774;SDS011;14362;51.902;7.626;2023-03-11T19:09:53;8.10;;;4.15;;
26774;SDS011;14362;51.902;7.626;2023-03-11T19:13:55;10.45;;;3.85;;
26774;SDS011;14362;51.902;7.626;2023-03-11T19:17:56;12.25;;;4.15;;
26774;SDS011;14362;51.902;7.626;2023-03-11T19:21:59;9.07;;;4.30;;
26774;SDS011;14362;51.902;7.626;2023-03-11T19:26:00;5.55;;;3.60;;
26774;SDS011;14362;51.902;7.626;2023-03-11T19:30:02;6.93;;;3.58;;
26774;SDS011;14362;51.902;7.626;2023-03-11T19:34:04;6.22;;;3.38;;
26774;SDS011;14362;51.902;7.626;2023-03-11T19:38:06;8.05;;;4.55;;
26774;SDS011;14362;51.902;7.626;2023-03-11T19:42:08;13.15;;;6.38;;
26774;SDS011;14362;51.902;7.626;2023-03-11T19:46:10;12.27;;;6.25;;
26774;SDS011;14362;51.902;7.626;2023-03-11T19:50:13;15.88;;;6.55;;
26774;SDS011;14362;51.902;7.626;2023-03-11T19:54:16;12.63;;;5.75;;
26774;SDS011;14362;51.902;7.626;2023-03-11T19:58:18;8.95;;;4.75;;
26774;SDS011;14362;51.902;7.626;2023-03-11T20:02:20;10.52;;;5.63;;
26774;SDS011;14362;51.902;7.626;2023-03-11T20:06:21;14.60;;;7.57;;
26774;SDS011;14362;51.902;7.626;2023-03-11T20:10:24;15.00;;;9.13;;
26774;SDS011;14362;51.902;7.626;2023-03-11T20:14:26;12.43;;;8.07;;
26774;SDS011;14362;51.902;7.626;2023-03-11T20:18:27;16.10;;;8.88;;
26774;SDS011;14362;51.902;7.626;2023-03-11T20:22:28;16.90;;;9.43;;
26774;SDS011;14362;51.902;7.626;2023-03-11T20:26:31;15.60;;;8.90;;
26774;SDS011;14362;51.902;7.626;2023-03-11T20:30:33;17.17;;;9.77;;
26774;SDS011;14362;51.902;7.626;2023-03-11T20:34:35;18.10;;;8.93;;
26774;SDS011;14362;51.902;7.626;2023-03-11T20:38:36;17.63;;;8.48;;
26774;SDS011;14362;51.902;7.626;2023-03-11T20:42:40;15.27;;;8.10;;
26774;SDS011;14362;51.902;7.626;2023-03-11T20:46:45;12.93;;;8.27;;
26774;SDS011;14362;51.902;7.626;2023-03-11T20:50:48;13.27;;;8.10;;
26774;SDS011;14362;51.902;7.626;2023-03-11T20:54:49;16.85;;;8.60;;
26774;SDS011;14362;51.902;7.626;2023-03-11T20:58:52;16.45;;;9.18;;
26774;SDS011;14362;51.902;7.626;2023-03-11T21:02:57;14.40;;;8.75;;
26774;SDS011;14362;51.902;7.626;2023-03-11T21:06:59;15.10;;;8.88;;
26774;SDS011;14362;51.902;7.626;2023-03-11T21:11:01;16.50;;;10.25;;
26774;SDS011;14362;51.902;7.626;2023-03-11T21:15:04;16.45;;;9.82;;
26774;SDS011;14362;51.902;7.626;2023-03-11T21:19:07;19.23;;;9.80;;
26774;SDS011;14362;51.902;7.626;2023-03-11T21:23:13;15.60;;;9.48;;
26774;SDS011;14362;51.902;7.626;2023-03-11T21:27:14;15.20;;;9.30;;
26774;SDS011;14362;51.902;7.626;2023-03-11T21:31:18;17.05;;;9.30;;
26774;SDS011;14362;51.902;7.626;2023-03-11T21:35:21;15.65;;;9.20;;
26774;SDS011;14362;51.902;7.626;2023-03-11T21:39:22;15.00;;;8.57;;
26774;SDS011;14362;51.902;7.626;2023-03-11T21:43:23;13.98;;;9.32;;
26774;SDS011;14362;51.902;7.626;2023-03-11T21:47:26;17.75;;;10.23;;
26774;SDS011;14362;51.902;7.626;2023-03-11T21:51:27;14.57;;;9.20;;
26774;SDS011;14362;51.902;7.626;2023-03-11T21:55:32;17.20;;;9.68;;
26774;SDS011;14362;51.902;7.626;2023-03-11T22:03:38;12.85;;;8.60;;
26774;SDS011;14362;51.902;7.626;2023-03-11T22:07:40;14.30;;;7.97;;
26774;SDS011;14362;51.902;7.626;2023-03-11T22:11:41;14.20;;;6.97;;
26774;SDS011;14362;51.902;7.626;2023-03-11T22:15:43;11.20;;;6.88;;
26774;SDS011;14362;51.902;7.626;2023-03-11T22:19:45;14.18;;;7.32;;
26774;SDS011;14362;51.902;7.626;2023-03-11T22:23:47;10.90;;;7.20;;
26774;SDS011;14362;51.902;7.626;2023-03-11T22:27:49;11.63;;;7.20;;
26774;SDS011;14362;51.902;7.626;2023-03-11T22:31:50;15.98;;;9.07;;
26774;SDS011;14362;51.902;7.626;2023-03-11T22:35:55;17.92;;;9.88;;
26774;SDS011;14362;51.902;7.626;2023-03-11T22:39:58;20.52;;;11.88;;
26774;SDS011;14362;51.902;7.626;2023-03-11T22:43:59;21.35;;;11.32;;
26774;SDS011;14362;51.902;7.626;2023-03-11T22:48:01;25.25;;;12.80;;
26774;SDS011;14362;51.902;7.626;2023-03-11T22:52:04;20.60;;;11.32;;
26774;SDS011;14362;51.902;7.626;2023-03-11T22:56:06;21.10;;;11.57;;
26774;SDS011;14362;51.902;7.626;2023-03-11T23:00:09;22.13;;;11.05;;
26774;SDS011;14362;51.902;7.626;2023-03-11T23:04:16;24.05;;;11.45;;
26774;SDS011;14362;51.902;7.626;2023-03-11T23:08:18;27.33;;;11.55;;
26774;SDS011;14362;51.902;7.626;2023-03-11T23:12:20;27.23;;;12.65;;
26774;SDS011;14362;51.902;7.626;2023-03-11T23:16:22;30.95;;;14.82;;
26774;SDS011;14362;51.902;7.626;2023-03-11T23:20:25;30.30;;;13.88;;
26774;SDS011;14362;51.902;7.626;2023-03-11T23:24:27;18.73;;;10.73;;
26774;SDS011;14362;51.902;7.626;2023-03-11T23:28:29;20.60;;;9.95;;
26774;SDS011;14362;51.902;7.626;2023-03-11T23:32:30;15.30;;;9.05;;
26774;SDS011;14362;51.902;7.626;2023-03-11T23:36:32;14.50;;;8.25;;
26774;SDS011;14362;51.902;7.626;2023-03-11T23:40:34;13.48;;;8.63;;
26774;SDS011;14362;51.902;7.626;2023-03-11T23:44:36;15.32;;;8.75;;
26774;SDS011;14362;51.902;7.626;2023-03-11T23:48:37;20.50;;;8.18;;
26774;SDS011;14362;51.902;7.626;2023-03-11T23:52:39;13.30;;;7.85;;
26774;SDS011;14362;51.902;7.626;2023-03-11T23:56:43;12.57;;;8.38;;
